Time;durP1;ratioP1;P1;durP2;ratioP2;P2;SDS_P1;SDS_P2;PMS_P1;PMS_P2;Temp;Humidity;BMP_temperature;BMP_pressure;BME280_temperature;BME280_humidity;BME280_pressure;Samples;Min_cycle;Max_cycle;Signal;HPM_P1;HPM_P2
2021/12/04 00:00:16;;;;;;;4.67;4.23;;;7.70;99.90;;;;;;5077153;28;20637;-63
2021/12/04 00:02:42;;;;;;;5.90;4.00;;;7.70;99.90;;;;;;5070908;28;20194;-63
2021/12/04 00:05:08;;;;;;;5.77;4.40;;;7.70;99.90;;;;;;5071396;28;20199;-63
2021/12/04 00:07:35;;;;;;;5.23;4.73;;;7.70;99.90;;;;;;5073137;28;20599;-63
2021/12/04 00:10:03;;;;;;;4.40;4.00;;;7.80;99.90;;;;;;5059428;28;20237;-63
2021/12/04 00:12:32;;;;;;;7.50;4.30;;;7.80;99.90;;;;;;5094888;28;20215;-62
2021/12/04 00:14:58;;;;;;;4.97;4.10;;;7.80;99.90;;;;;;5059014;28;20656;-63
2021/12/04 00:17:24;;;;;;;4.27;3.67;;;7.70;99.90;;;;;;5092175;28;20185;-63
2021/12/04 00:19:50;;;;;;;4.63;3.77;;;7.70;99.90;;;;;;5091033;28;20633;-62
2021/12/04 00:22:16;;;;;;;5.20;4.53;;;7.60;99.90;;;;;;5076010;28;20193;-63
2021/12/04 00:24:41;;;;;;;5.30;4.70;;;7.60;99.90;;;;;;5090702;28;20283;-64
2021/12/04 00:27:07;;;;;;;5.07;4.23;;;7.70;99.90;;;;;;5059038;28;20268;-63
2021/12/04 00:29:33;;;;;;;5.77;4.03;;;7.70;99.90;;;;;;5060524;28;20188;-62
2021/12/04 00:32:27;;;;;;;4.63;4.17;;;7.80;99.90;;;;;;5058772;28;20283;-62
2021/12/04 00:34:49;;;;;;;5.33;3.93;;;7.80;99.90;;;;;;5078227;28;20245;-62
2021/12/04 00:43:24;;;;;;;5.50;4.63;;;8.60;99.90;;;;;;5085999;28;20199;-61
2021/12/04 00:51:18;;;;;;;4.63;3.83;;;8.20;99.90;;;;;;5087882;28;20219;-62
2021/12/04 00:53:44;;;;;;;5.03;4.20;;;8.30;99.90;;;;;;5092677;28;20181;-62
2021/12/04 00:56:09;;;;;;;4.33;3.80;;;8.30;99.90;;;;;;5081066;28;20550;-62
2021/12/04 00:58:35;;;;;;;5.20;4.60;;;8.10;99.90;;;;;;5076151;28;20628;-62
2021/12/04 01:01:02;;;;;;;5.80;5.13;;;8.00;99.90;;;;;;5074604;28;20283;-62
2021/12/04 01:03:27;;;;;;;6.03;4.17;;;7.90;99.90;;;;;;5058987;28;20180;-62
2021/12/04 01:05:53;;;;;;;4.07;3.77;;;7.90;99.90;;;;;;5093383;28;20197;-62
2021/12/04 01:08:19;;;;;;;4.53;4.13;;;8.00;99.90;;;;;;5073703;28;20189;-61
2021/12/04 01:10:45;;;;;;;4.70;4.00;;;7.90;99.90;;;;;;5093039;28;20217;-62
2021/12/04 01:13:11;;;;;;;4.37;3.73;;;7.90;99.90;;;;;;5075653;28;20184;-62
2021/12/04 01:15:39;;;;;;;5.33;4.83;;;7.70;99.90;;;;;;5055009;28;20189;-62
2021/12/04 01:18:04;;;;;;;5.27;4.30;;;7.60;99.90;;;;;;5091597;28;20184;-62
2021/12/04 01:20:30;;;;;;;4.90;4.37;;;7.30;99.90;;;;;;5091714;28;20188;-62
2021/12/04 01:22:56;;;;;;;5.27;4.20;;;7.30;99.90;;;;;;5065259;28;20193;-62
2021/12/04 01:25:22;;;;;;;6.20;4.53;;;7.20;99.90;;;;;;5088189;28;20185;-63
2021/12/04 01:27:47;;;;;;;5.27;4.33;;;7.30;99.90;;;;;;5089347;28;20242;-63
2021/12/04 01:30:13;;;;;;;5.20;3.83;;;7.30;99.90;;;;;;5058551;28;20207;-61
2021/12/04 01:32:39;;;;;;;4.70;4.30;;;7.50;99.90;;;;;;5065231;28;20188;-61
2021/12/04 01:35:05;;;;;;;5.00;3.70;;;7.60;99.90;;;;;;5075075;28;20198;-61
2021/12/04 01:37:31;;;;;;;6.37;3.73;;;7.60;99.90;;;;;;5085366;28;20250;-62
2021/12/04 01:39:57;;;;;;;4.10;3.63;;;7.60;99.90;;;;;;5075112;28;20188;-62
2021/12/04 01:42:23;;;;;;;7.47;4.30;;;7.70;99.90;;;;;;5074609;28;20199;-62
2021/12/04 01:44:49;;;;;;;3.40;3.10;;;7.90;99.90;;;;;;5056470;28;20199;-62
2021/12/04 01:47:20;;;;;;;4.67;4.13;;;7.90;99.90;;;;;;5072439;28;20184;-62
2021/12/04 01:49:48;;;;;;;3.40;3.10;;;8.00;99.90;;;;;;5066633;28;20181;-63
2021/12/04 01:52:15;;;;;;;3.00;2.80;;;8.10;99.90;;;;;;5092521;28;20203;-62
2021/12/04 01:54:40;;;;;;;4.47;3.20;;;8.20;99.90;;;;;;5074837;28;20189;-62
2021/12/04 01:57:06;;;;;;;6.17;3.00;;;8.30;99.90;;;;;;5074919;28;20735;-62
2021/12/04 01:59:32;;;;;;;8.53;3.40;;;8.50;99.90;;;;;;5074307;28;20421;-62
2021/12/04 02:01:58;;;;;;;3.37;3.00;;;8.70;99.90;;;;;;5070346;28;20197;-62
2021/12/04 02:04:24;;;;;;;4.13;3.83;;;8.80;99.90;;;;;;5059194;28;20716;-62
2021/12/04 02:06:49;;;;;;;4.63;3.57;;;8.70;99.90;;;;;;5086696;28;20195;-62
2021/12/04 02:09:15;;;;;;;3.77;3.00;;;8.70;99.90;;;;;;5073768;28;20653;-62
2021/12/04 02:11:41;;;;;;;3.63;3.33;;;8.70;99.90;;;;;;5038242;28;20258;-62
2021/12/04 02:14:07;;;;;;;4.97;4.07;;;8.60;99.90;;;;;;5065439;28;20212;-62
2021/12/04 02:16:33;;;;;;;6.37;4.83;;;8.70;99.90;;;;;;5092726;28;20191;-62
2021/12/04 02:18:59;;;;;;;4.90;4.17;;;8.50;99.90;;;;;;5074470;28;20565;-62
2021/12/04 02:21:26;;;;;;;5.33;4.83;;;8.50;99.90;;;;;;5088367;28;20188;-62
2021/12/04 02:23:53;;;;;;;5.00;4.33;;;8.40;99.90;;;;;;5074792;28;20276;-61
2021/12/04 02:26:19;;;;;;;3.90;3.60;;;8.40;99.90;;;;;;5081952;28;20181;-62
2021/12/04 02:28:45;;;;;;;4.60;3.67;;;8.10;99.90;;;;;;5089944;28;20191;-62
2021/12/04 02:31:11;;;;;;;3.87;3.57;;;7.80;99.90;;;;;;5084543;28;20203;-61
2021/12/04 02:33:37;;;;;;;3.60;3.30;;;7.80;99.90;;;;;;5090333;28;20189;-61
2021/12/04 02:36:06;;;;;;;3.43;3.13;;;7.70;99.90;;;;;;5088075;28;20196;-61
2021/12/04 02:38:32;;;;;;;4.47;4.03;;;7.60;99.90;;;;;;5091658;28;20185;-61
2021/12/04 02:41:02;;;;;;;3.50;3.20;;;7.80;99.90;;;;;;5073866;28;20233;-61
2021/12/04 02:43:33;;;;;;;4.10;3.70;;;8.00;99.90;;;;;;5073292;28;20193;-62
2021/12/04 02:45:58;;;;;;;3.70;3.40;;;8.00;99.90;;;;;;5074108;28;20177;-62
2021/12/04 02:48:24;;;;;;;3.23;2.83;;;8.10;99.90;;;;;;5072171;28;20759;-61
2021/12/04 02:50:50;;;;;;;4.77;3.00;;;8.20;99.90;;;;;;5094722;28;20325;-61
2021/12/04 02:53:17;;;;;;;3.70;3.40;;;8.20;99.90;;;;;;5077836;28;20629;-62
2021/12/04 02:55:44;;;;;;;3.90;3.20;;;8.30;99.90;;;;;;5089865;28;20612;-61
2021/12/04 02:58:13;;;;;;;3.90;3.20;;;8.40;99.90;;;;;;5057268;28;20224;-61
2021/12/04 03:00:45;;;;;;;9.83;3.97;;;8.40;99.90;;;;;;5089487;28;20185;-61
2021/12/04 03:03:11;;;;;;;3.90;3.60;;;8.50;99.90;;;;;;5044593;28;20213;-61
2021/12/04 03:05:37;;;;;;;6.37;3.90;;;8.40;99.90;;;;;;5071132;28;20217;-62
2021/12/04 03:08:04;;;;;;;3.33;3.03;;;8.50;99.90;;;;;;5077889;28;20208;-62
2021/12/04 03:10:29;;;;;;;3.27;2.83;;;8.50;99.90;;;;;;5092899;28;20697;-62
2021/12/04 03:12:55;;;;;;;3.87;3.20;;;8.60;99.90;;;;;;5088614;28;20193;-62
2021/12/04 03:15:22;;;;;;;3.63;3.20;;;8.50;99.90;;;;;;5075227;28;20204;-62
2021/12/04 03:17:48;;;;;;;3.60;2.90;;;8.50;99.90;;;;;;5062157;28;20181;-62
2021/12/04 03:20:14;;;;;;;3.70;3.17;;;8.50;99.90;;;;;;5078768;28;20189;-62
2021/12/04 03:22:41;;;;;;;3.53;3.27;;;8.50;99.90;;;;;;5077183;28;20196;-62
2021/12/04 03:25:08;;;;;;;3.93;3.53;;;8.50;99.90;;;;;;5077518;28;20528;-62
2021/12/04 03:27:34;;;;;;;5.27;3.77;;;8.30;99.90;;;;;;5083007;28;20188;-61
2021/12/04 03:30:04;;;;;;;3.83;3.50;;;8.00;99.90;;;;;;5077287;28;20195;-62
2021/12/04 03:43:09;;;;;;;4.97;3.93;;;8.30;99.90;;;;;;5089475;28;20256;-62
2021/12/04 03:45:39;;;;;;;4.03;3.07;;;8.40;99.90;;;;;;5084876;28;20186;-62
2021/12/04 03:48:12;;;;;;;4.43;4.03;;;8.40;99.90;;;;;;5043310;28;20181;-62
2021/12/04 03:50:38;;;;;;;5.33;3.63;;;8.60;99.90;;;;;;5078232;28;20205;-61
2021/12/04 03:53:05;;;;;;;4.07;3.60;;;8.50;99.90;;;;;;5068560;28;20184;-62
2021/12/04 03:55:31;;;;;;;5.07;3.73;;;8.60;99.90;;;;;;5083302;28;20250;-62
2021/12/04 03:58:04;;;;;;;3.70;3.40;;;8.50;99.90;;;;;;5083568;28;20677;-62
2021/12/04 04:00:29;;;;;;;3.40;3.10;;;8.40;99.90;;;;;;5084061;28;20193;-62
2021/12/04 04:02:57;;;;;;;7.50;4.03;;;8.40;99.90;;;;;;5074068;28;20688;-62
2021/12/04 04:05:23;;;;;;;4.47;4.07;;;8.50;99.90;;;;;;5086058;28;20185;-61
2021/12/04 04:07:49;;;;;;;5.80;3.97;;;8.60;99.90;;;;;;5085397;28;20660;-61
2021/12/04 04:10:14;;;;;;;4.60;4.13;;;8.40;99.90;;;;;;5076272;28;20204;-62
2021/12/04 04:12:40;;;;;;;4.03;3.70;;;8.40;99.90;;;;;;5064950;28;20323;-61
2021/12/04 04:15:06;;;;;;;4.07;3.70;;;8.50;99.90;;;;;;5066144;28;20638;-61
2021/12/04 04:17:41;;;;;;;5.03;4.13;;;8.30;99.90;;;;;;5027612;28;20185;-61
2021/12/04 04:20:08;;;;;;;4.00;3.47;;;8.40;99.90;;;;;;5062610;28;20185;-61
2021/12/04 04:22:33;;;;;;;4.73;3.80;;;8.40;99.90;;;;;;5085940;28;20195;-61
2021/12/04 04:24:59;;;;;;;3.37;3.07;;;8.30;99.90;;;;;;5085897;28;20556;-62
2021/12/04 04:27:24;;;;;;;4.30;3.53;;;8.30;99.90;;;;;;5088802;28;20558;-61
2021/12/04 04:29:50;;;;;;;4.93;4.03;;;8.30;99.90;;;;;;5088758;28;20188;-61
2021/12/04 04:32:16;;;;;;;3.83;3.43;;;8.30;99.90;;;;;;5088942;28;20315;-61
2021/12/04 04:34:41;;;;;;;4.97;4.30;;;8.40;99.90;;;;;;5076273;28;20192;-61
2021/12/04 05:14:32;;;;;;;4.23;3.83;;;8.20;99.90;;;;;;5076177;28;20193;-61
2021/12/04 05:17:06;;;;;;;7.90;4.00;;;8.30;99.90;;;;;;5068158;28;20185;-61
2021/12/04 05:19:44;;;;;;;5.27;3.90;;;8.40;99.90;;;;;;5061851;28;20199;-61
2021/12/04 05:22:13;;;;;;;4.87;4.37;;;8.20;99.90;;;;;;5086347;28;20192;-62
2021/12/04 05:24:40;;;;;;;3.43;3.13;;;8.20;99.90;;;;;;5081126;28;20204;-62
2021/12/04 05:27:06;;;;;;;3.87;3.07;;;8.50;99.90;;;;;;5074459;28;20640;-62
2021/12/04 05:29:32;;;;;;;4.13;3.73;;;8.40;99.90;;;;;;5075774;28;20273;-62
2021/12/04 05:31:58;;;;;;;3.83;3.43;;;8.50;99.90;;;;;;5064162;28;20232;-61
2021/12/04 05:34:24;;;;;;;4.27;3.83;;;8.40;99.90;;;;;;5085568;28;20217;-62
2021/12/04 05:36:50;;;;;;;5.03;3.83;;;8.50;99.90;;;;;;5078524;28;20205;-62
2021/12/04 05:39:16;;;;;;;4.17;3.40;;;8.50;99.90;;;;;;5085324;28;20274;-62
2021/12/04 05:41:42;;;;;;;4.80;4.00;;;8.50;99.90;;;;;;5039170;28;20534;-62
2021/12/04 05:44:10;;;;;;;3.87;3.47;;;8.60;99.90;;;;;;5073923;28;20563;-62
2021/12/04 05:47:24;;;;;;;5.40;4.00;;;8.60;99.90;;;;;;5058801;28;20184;-62
2021/12/04 05:52:39;;;;;;;4.90;4.40;;;8.80;99.90;;;;;;5054477;28;20713;-64
2021/12/04 05:55:17;;;;;;;4.40;3.60;;;8.70;99.90;;;;;;5047996;28;20557;-63
2021/12/04 05:57:43;;;;;;;4.20;3.80;;;8.80;99.90;;;;;;5073236;28;20684;-62
2021/12/04 06:00:15;;;;;;;4.23;3.83;;;8.90;99.90;;;;;;5063935;28;20185;-63
2021/12/04 06:02:41;;;;;;;3.87;3.43;;;8.90;99.90;;;;;;5091277;28;20168;-63
2021/12/04 06:05:07;;;;;;;5.73;3.90;;;8.90;99.90;;;;;;5074781;28;20230;-64
2021/12/04 06:07:32;;;;;;;4.20;3.80;;;8.70;99.90;;;;;;5073857;28;20615;-63
2021/12/04 06:09:58;;;;;;;3.40;3.13;;;8.70;99.90;;;;;;5090467;28;20653;-63
2021/12/04 06:12:24;;;;;;;4.23;3.83;;;8.70;99.90;;;;;;5092743;28;20189;-63
2021/12/04 06:14:49;;;;;;;4.53;3.77;;;8.90;99.90;;;;;;5073975;28;20638;-64
2021/12/04 06:17:18;;;;;;;4.30;3.60;;;8.80;99.90;;;;;;5089649;28;20212;-64
2021/12/04 06:22:40;;;;;;;4.00;3.37;;;9.40;99.90;;;;;;5068883;28;20718;-63
2021/12/04 06:25:15;;;;;;;3.97;3.57;;;9.20;99.90;;;;;;5074284;28;20577;-63
2021/12/04 06:27:41;;;;;;;4.50;3.87;;;9.30;99.90;;;;;;5071543;28;20187;-62
2021/12/04 06:30:10;;;;;;;3.37;3.07;;;9.20;99.90;;;;;;5058531;28;20189;-62
2021/12/04 06:32:37;;;;;;;5.57;3.80;;;9.00;99.90;;;;;;5063167;28;20542;-61
2021/12/04 06:35:09;;;;;;;5.10;4.20;;;8.80;99.90;;;;;;5083446;28;20189;-61
2021/12/04 06:37:35;;;;;;;4.93;3.73;;;8.70;99.90;;;;;;5092482;28;20509;-61
2021/12/04 06:40:02;;;;;;;5.47;3.87;;;8.30;99.90;;;;;;5092190;28;20191;-61
2021/12/04 06:42:28;;;;;;;5.53;4.13;;;7.90;99.90;;;;;;5075360;28;20173;-61
2021/12/04 06:44:56;;;;;;;5.27;4.13;;;7.70;99.90;;;;;;5065924;28;20188;-62
2021/12/04 06:47:22;;;;;;;6.70;4.50;;;7.70;99.90;;;;;;5067408;28;20191;-61
2021/12/04 06:49:49;;;;;;;4.87;3.27;;;7.60;99.90;;;;;;5045495;28;20189;-63
2021/12/04 06:52:18;;;;;;;5.03;3.50;;;7.50;99.90;;;;;;5052699;28;20611;-61
2021/12/04 06:54:54;;;;;;;4.47;3.77;;;7.50;99.90;;;;;;5074574;28;20177;-61
2021/12/04 06:57:20;;;;;;;4.73;3.57;;;7.40;99.90;;;;;;5069352;28;20245;-61
2021/12/04 06:59:47;;;;;;;4.50;3.90;;;7.40;99.90;;;;;;5085699;28;20197;-60
2021/12/04 07:02:14;;;;;;;5.13;3.80;;;7.70;99.90;;;;;;5069655;28;20192;-61
2021/12/04 07:04:40;;;;;;;5.83;4.53;;;7.70;99.90;;;;;;5057102;28;20637;-61
2021/12/04 07:07:07;;;;;;;5.10;3.53;;;7.60;99.90;;;;;;5082138;28;20189;-62
2021/12/04 07:09:34;;;;;;;3.93;3.57;;;7.40;99.90;;;;;;5081388;28;20197;-61
2021/12/04 07:12:00;;;;;;;3.97;3.03;;;7.40;99.90;;;;;;5089945;28;20205;-61
2021/12/04 07:14:30;;;;;;;5.17;3.87;;;7.50;99.90;;;;;;5069049;28;20186;-61
2021/12/04 07:16:57;;;;;;;4.17;3.77;;;7.50;99.90;;;;;;5081892;28;20316;-61
2021/12/04 07:19:22;;;;;;;6.27;4.40;;;7.60;99.90;;;;;;5063153;28;20189;-60
2021/12/04 07:21:48;;;;;;;5.47;4.07;;;7.80;99.90;;;;;;5071413;28;20549;-60
2021/12/04 07:24:15;;;;;;;7.17;4.90;;;8.10;99.90;;;;;;5065186;28;20269;-60
2021/12/04 07:26:41;;;;;;;6.87;4.50;;;8.00;99.90;;;;;;5056357;28;20197;-61
2021/12/04 07:29:07;;;;;;;5.57;3.83;;;7.80;99.90;;;;;;5068643;28;20184;-61
2021/12/04 07:31:33;;;;;;;4.90;4.03;;;7.80;99.90;;;;;;5078867;28;20235;-62
2021/12/04 07:34:00;;;;;;;7.57;5.10;;;7.80;99.90;;;;;;5091720;28;20189;-61
2021/12/04 07:36:26;;;;;;;7.50;4.80;;;7.70;99.90;;;;;;5075389;28;20637;-59
2021/12/04 07:38:52;;;;;;;7.07;4.53;;;7.60;99.90;;;;;;5076965;28;20254;-60
2021/12/04 07:41:19;;;;;;;6.60;5.20;;;7.60;99.90;;;;;;5069202;28;20196;-62
2021/12/04 07:43:45;;;;;;;5.03;3.87;;;7.80;99.90;;;;;;5083084;28;20189;-62
2021/12/04 07:46:11;;;;;;;5.00;4.50;;;7.60;99.90;;;;;;5076523;28;20214;-63
2021/12/04 07:48:37;;;;;;;7.53;5.20;;;7.60;99.90;;;;;;5092274;28;20193;-62
2021/12/04 07:51:04;;;;;;;6.80;5.63;;;7.70;99.90;;;;;;5087569;28;20630;-62
2021/12/04 07:53:31;;;;;;;11.57;5.93;;;7.80;99.90;;;;;;5058740;28;20191;-61
2021/12/04 07:55:58;;;;;;;8.03;6.47;;;7.80;99.90;;;;;;5093739;28;20217;-62
2021/12/04 07:58:23;;;;;;;9.73;6.63;;;7.90;99.90;;;;;;5076341;28;20193;-62
2021/12/04 08:00:50;;;;;;;10.87;6.87;;;7.90;99.90;;;;;;5073725;28;20616;-63
2021/12/04 08:03:16;;;;;;;12.03;6.73;;;7.70;99.90;;;;;;5076930;28;20177;-62
2021/12/04 08:05:43;;;;;;;8.23;6.43;;;7.70;99.90;;;;;;5076892;28;20213;-61
2021/12/04 08:08:09;;;;;;;10.23;6.57;;;7.50;99.90;;;;;;5073911;28;20203;-62
2021/12/04 08:10:36;;;;;;;9.63;6.63;;;7.60;99.90;;;;;;5076533;28;20249;-62
2021/12/04 08:13:03;;;;;;;9.43;6.43;;;7.70;99.90;;;;;;5091900;28;20188;-63
2021/12/04 08:15:30;;;;;;;12.30;6.00;;;7.60;99.90;;;;;;5076650;28;20185;-61
2021/12/04 08:17:56;;;;;;;8.70;4.90;;;7.60;99.90;;;;;;5086884;28;20193;-60
2021/12/04 08:20:25;;;;;;;12.60;5.70;;;7.60;99.90;;;;;;5072282;28;20188;-61
2021/12/04 08:22:50;;;;;;;8.57;6.07;;;7.50;99.90;;;;;;5093999;28;20226;-60
2021/12/04 08:25:18;;;;;;;9.17;5.77;;;7.30;99.90;;;;;;5085813;28;20232;-60
2021/12/04 08:27:45;;;;;;;7.67;5.83;;;7.30;99.90;;;;;;5090607;28;20184;-61
2021/12/04 08:30:15;;;;;;;7.63;5.17;;;7.20;99.90;;;;;;5087887;28;20184;-61
2021/12/04 08:32:41;;;;;;;10.30;5.50;;;7.20;99.90;;;;;;5067224;28;20212;-60
2021/12/04 08:35:09;;;;;;;9.00;5.43;;;7.30;99.90;;;;;;5087381;28;20208;-62
2021/12/04 08:37:35;;;;;;;8.30;5.33;;;7.60;99.90;;;;;;5061206;28;20181;-61
2021/12/04 08:40:03;;;;;;;7.03;5.50;;;7.80;99.90;;;;;;5083704;28;20234;-60
2021/12/04 08:42:29;;;;;;;7.93;5.23;;;7.90;99.90;;;;;;5084486;28;20704;-61
2021/12/04 08:44:54;;;;;;;7.33;5.23;;;7.90;99.90;;;;;;5089093;28;20192;-60
2021/12/04 08:47:21;;;;;;;7.57;4.57;;;8.20;99.90;;;;;;5055296;28;20193;-60
2021/12/04 08:49:47;;;;;;;7.00;5.17;;;8.10;99.90;;;;;;5090705;28;20216;-60
2021/12/04 08:52:17;;;;;;;6.90;5.10;;;8.00;99.90;;;;;;5071947;28;20244;-61
2021/12/04 08:54:43;;;;;;;7.03;5.03;;;7.80;99.90;;;;;;5071055;28;20189;-61
2021/12/04 08:57:09;;;;;;;6.63;5.50;;;7.90;99.90;;;;;;5075963;28;20271;-60
2021/12/04 08:59:35;;;;;;;8.63;6.30;;;7.90;99.90;;;;;;5070855;28;20721;-62
2021/12/04 09:02:01;;;;;;;8.53;5.43;;;7.70;99.90;;;;;;5066247;28;20193;-63
2021/12/04 09:04:30;;;;;;;8.83;5.40;;;7.70;99.90;;;;;;5058955;28;20645;-63
2021/12/04 09:06:57;;;;;;;8.97;5.67;;;7.70;99.90;;;;;;5092820;28;20192;-63
2021/12/04 09:09:24;;;;;;;7.60;5.57;;;7.60;99.90;;;;;;5092162;28;20196;-63
2021/12/04 09:11:53;;;;;;;8.90;5.60;;;7.70;99.90;;;;;;5089992;28;20688;-63
2021/12/04 09:14:23;;;;;;;10.77;6.67;;;7.70;99.90;;;;;;5064180;28;20180;-63
2021/12/04 09:16:52;;;;;;;11.93;6.87;;;8.00;99.90;;;;;;5092790;28;20177;-62
2021/12/04 09:19:18;;;;;;;9.93;6.07;;;8.00;99.90;;;;;;5088499;28;20213;-62
2021/12/04 09:21:46;;;;;;;8.73;5.97;;;8.00;99.90;;;;;;5066845;28;20579;-63
2021/12/04 09:24:16;;;;;;;8.57;5.47;;;8.20;99.90;;;;;;5070400;28;20197;-64
2021/12/04 09:27:12;;;;;;;10.60;5.47;;;8.20;99.90;;;;;;5069712;28;20197;-62
2021/12/04 09:59:23;;;;;;;11.00;5.17;;;8.30;99.90;;;;;;5076522;28;20606;-63
2021/12/04 10:00:00;;;;;;;8.17;6.00;;;8.40;99.90;;;;;;5077517;28;20235;-65
2021/12/04 10:13:38;;;;;;;10.73;6.73;;;8.30;99.90;;;;;;5089269;28;20767;-64
2021/12/04 10:34:35;;;;;;;10.97;7.30;;;8.50;99.90;;;;;;5085628;28;20230;-61
2021/12/04 10:37:22;;;;;;;13.37;7.20;;;8.50;99.90;;;;;;5092361;28;20184;-61
2021/12/04 10:39:48;;;;;;;11.70;6.90;;;8.40;99.90;;;;;;5069327;28;20267;-61
2021/12/04 10:42:17;;;;;;;10.63;6.73;;;8.40;99.90;;;;;;5070280;28;20323;-62
2021/12/04 10:44:50;;;;;;;20.83;8.97;;;8.40;99.90;;;;;;5070546;28;20229;-61
2021/12/04 10:47:22;;;;;;;17.33;8.60;;;8.40;99.90;;;;;;5090583;28;20213;-60
2021/12/04 10:50:22;;;;;;;16.07;7.40;;;8.30;99.90;;;;;;5085079;28;20697;-61
2021/12/04 10:52:58;;;;;;;16.77;8.83;;;8.20;99.90;;;;;;5084617;28;20184;-61
2021/12/04 11:27:56;;;;;;;8.83;5.27;;;8.00;99.90;;;;;;5065100;28;20226;-61
2021/12/04 11:46:44;;;;;;;6.00;4.27;;;7.80;99.90;;;;;;5087500;28;20272;-61
2021/12/04 11:49:20;;;;;;;6.73;4.77;;;7.80;99.90;;;;;;5095028;28;20180;-61
2021/12/04 11:52:00;;;;;;;6.30;4.77;;;7.80;99.90;;;;;;5086401;28;20231;-61
2021/12/04 11:54:47;;;;;;;8.30;4.70;;;7.80;99.90;;;;;;5080448;28;20191;-61
2021/12/04 11:57:15;;;;;;;7.90;4.83;;;7.80;99.90;;;;;;5063681;28;20177;-61
2021/12/04 11:59:43;;;;;;;6.83;4.63;;;7.80;99.90;;;;;;5077395;28;20206;-60
2021/12/04 12:02:21;;;;;;;6.47;4.13;;;7.80;99.90;;;;;;5092210;28;20185;-61
2021/12/04 12:04:55;;;;;;;6.67;5.23;;;8.00;99.90;;;;;;5085735;28;20184;-61
2021/12/04 12:07:24;;;;;;;5.73;3.90;;;8.00;99.90;;;;;;5095364;28;20191;-61
2021/12/04 12:10:02;;;;;;;6.23;3.90;;;8.00;99.90;;;;;;5085995;28;20210;-61
2021/12/04 12:12:34;;;;;;;6.33;5.17;;;8.10;99.90;;;;;;5092602;28;20223;-61
2021/12/04 12:15:15;;;;;;;8.87;4.87;;;8.10;99.90;;;;;;5081180;28;20189;-61
2021/12/04 12:17:42;;;;;;;7.07;4.90;;;8.10;99.90;;;;;;5086567;28;20234;-61
2021/12/04 12:20:16;;;;;;;5.67;4.57;;;8.00;99.90;;;;;;5057362;28;20609;-61
2021/12/04 12:22:50;;;;;;;7.63;5.13;;;8.00;99.90;;;;;;5069958;28;20181;-61
2021/12/04 12:25:29;;;;;;;6.20;5.27;;;7.90;99.90;;;;;;5087914;28;20236;-61
2021/12/04 12:36:14;;;;;;;6.07;4.20;;;8.00;99.90;;;;;;5065834;28;20271;-61
2021/12/04 12:38:54;;;;;;;5.93;4.93;;;7.90;99.90;;;;;;5075873;28;20184;-61
2021/12/04 12:41:42;;;;;;;8.80;4.33;;;7.80;99.90;;;;;;5091658;28;20192;-61
2021/12/04 12:44:14;;;;;;;7.20;4.60;;;7.90;99.90;;;;;;5086014;28;20182;-61
2021/12/04 12:46:47;;;;;;;9.03;5.77;;;7.90;99.90;;;;;;5073723;28;20181;-61
2021/12/04 12:49:23;;;;;;;11.17;5.17;;;7.90;99.90;;;;;;5090934;28;20416;-61
2021/12/04 12:51:55;;;;;;;8.97;4.73;;;8.00;99.90;;;;;;5093402;28;20636;-60
2021/12/04 12:54:44;;;;;;;6.40;5.00;;;8.00;99.90;;;;;;5084937;28;20181;-61
2021/12/04 12:57:22;;;;;;;7.73;5.17;;;7.90;99.90;;;;;;5087497;28;20177;-61
2021/12/04 13:14:08;;;;;;;9.47;5.67;;;8.20;99.90;;;;;;5087609;28;20271;-61
2021/12/04 13:16:33;;;;;;;11.23;6.67;;;8.20;99.90;;;;;;5090789;28;20184;-61
2021/12/04 13:19:04;;;;;;;11.50;6.30;;;8.20;99.90;;;;;;5088591;28;20192;-60
2021/12/04 13:21:34;;;;;;;9.73;5.77;;;8.10;99.90;;;;;;5090976;28;20238;-61
2021/12/04 13:24:00;;;;;;;6.33;5.50;;;8.20;99.90;;;;;;5068724;28;20526;-60
2021/12/04 13:26:35;;;;;;;10.17;6.63;;;8.10;99.90;;;;;;5073645;28;20276;-61
2021/12/04 13:29:04;;;;;;;11.37;6.50;;;8.00;99.90;;;;;;5074637;28;20184;-61
2021/12/04 13:31:30;;;;;;;8.27;6.07;;;8.00;99.90;;;;;;5073338;28;20605;-61
2021/12/04 13:33:56;;;;;;;8.50;6.03;;;8.00;99.90;;;;;;5086126;28;20287;-61
2021/12/04 13:36:28;;;;;;;10.97;6.10;;;8.10;99.90;;;;;;5074952;28;20197;-61
2021/12/04 13:38:58;;;;;;;10.97;6.53;;;8.00;99.90;;;;;;5075437;28;20199;-61
2021/12/04 13:41:24;;;;;;;6.90;5.60;;;8.00;99.90;;;;;;5091098;28;20200;-61
2021/12/04 13:43:55;;;;;;;12.03;6.47;;;8.10;99.90;;;;;;5072940;28;20193;-60
2021/12/04 13:46:23;;;;;;;11.70;7.27;;;8.10;99.90;;;;;;5089884;28;20755;-61
2021/12/04 13:48:49;;;;;;;7.63;5.87;;;8.00;99.90;;;;;;5073396;28;20181;-61
2021/12/04 13:51:14;;;;;;;6.17;5.37;;;8.10;99.90;;;;;;5069271;28;20212;-61
2021/12/04 13:53:44;;;;;;;12.10;6.00;;;8.00;99.90;;;;;;5085830;28;20551;-60
2021/12/04 13:56:13;;;;;;;11.77;6.30;;;7.90;99.90;;;;;;5074435;28;20525;-60
2021/12/04 13:58:55;;;;;;;12.03;6.40;;;8.00;99.90;;;;;;5092800;28;20263;-60
2021/12/04 14:01:22;;;;;;;8.63;4.90;;;8.20;99.90;;;;;;5065052;28;20528;-60
2021/12/04 14:03:52;;;;;;;7.37;5.87;;;8.20;99.90;;;;;;5073599;28;20260;-60
2021/12/04 14:06:19;;;;;;;8.87;5.80;;;8.20;99.90;;;;;;5090192;28;20601;-60
2021/12/04 14:09:01;;;;;;;7.93;5.37;;;8.30;99.90;;;;;;5070024;28;20196;-60
2021/12/04 14:11:39;;;;;;;7.13;4.40;;;8.40;99.90;;;;;;5087173;28;20211;-60
2021/12/04 14:14:24;;;;;;;9.83;4.90;;;8.30;99.90;;;;;;5090137;28;20216;-60
2021/12/04 14:16:53;;;;;;;6.33;5.00;;;8.20;99.90;;;;;;5091104;28;20249;-62
2021/12/04 14:19:24;;;;;;;8.27;4.43;;;8.20;99.90;;;;;;5089419;28;20234;-61
2021/12/04 14:21:57;;;;;;;6.97;4.20;;;8.20;99.90;;;;;;5091414;28;20183;-62
2021/12/04 14:24:30;;;;;;;8.77;4.07;;;8.40;99.90;;;;;;5086666;28;20223;-61
2021/12/04 14:26:58;;;;;;;7.60;4.20;;;8.20;99.90;;;;;;5084071;28;20183;-61
2021/12/04 14:29:26;;;;;;;6.63;3.93;;;8.10;99.90;;;;;;5086604;28;20640;-61
2021/12/04 14:31:52;;;;;;;10.17;4.43;;;7.90;99.90;;;;;;5091806;28;20285;-61
2021/12/04 14:34:26;;;;;;;6.07;4.47;;;7.90;99.90;;;;;;5063924;28;20649;-61
2021/12/04 14:37:18;;;;;;;7.43;3.93;;;8.00;99.90;;;;;;5092153;28;20189;-61
2021/12/04 14:39:48;;;;;;;8.83;4.00;;;8.00;99.90;;;;;;5087909;28;20699;-61
2021/12/04 14:42:25;;;;;;;7.87;4.20;;;7.90;99.90;;;;;;5085515;28;20234;-61
2021/12/04 14:44:57;;;;;;;7.83;4.17;;;7.90;99.90;;;;;;5089922;28;20172;-61
2021/12/04 14:47:29;;;;;;;4.53;3.63;;;7.90;99.90;;;;;;5089672;28;20617;-62
2021/12/04 14:50:00;;;;;;;7.97;4.17;;;8.00;99.90;;;;;;5088295;28;21688;-61
2021/12/04 14:52:30;;;;;;;10.03;4.23;;;8.00;99.90;;;;;;5041756;28;20200;-61
2021/12/04 14:54:56;;;;;;;5.97;3.93;;;8.00;99.90;;;;;;5085248;28;20200;-61
2021/12/04 14:57:28;;;;;;;5.20;4.33;;;8.10;99.90;;;;;;5055823;28;20188;-61
2021/12/04 15:00:03;;;;;;;5.40;3.87;;;8.00;99.90;;;;;;5090123;28;20713;-61
2021/12/04 15:02:29;;;;;;;11.87;3.67;;;8.00;99.90;;;;;;5073320;28;20211;-60
2021/12/04 15:04:56;;;;;;;8.53;3.97;;;8.00;99.90;;;;;;5071877;28;20212;-63
2021/12/04 15:07:24;;;;;;;9.53;4.60;;;8.00;99.90;;;;;;5070025;28;20189;-62
2021/12/04 15:09:50;;;;;;;6.63;3.53;;;7.90;99.90;;;;;;5060052;28;20280;-61
2021/12/04 15:12:31;;;;;;;6.00;2.60;;;7.90;99.90;;;;;;5073267;28;20283;-62
2021/12/04 15:15:04;;;;;;;8.83;3.43;;;8.00;99.90;;;;;;5083341;28;20242;-61
2021/12/04 15:17:30;;;;;;;7.77;3.70;;;7.90;99.90;;;;;;5065545;28;20582;-61
2021/12/04 15:20:17;;;;;;;5.27;3.07;;;7.90;99.90;;;;;;5073438;28;20275;-62
2021/12/04 15:22:46;;;;;;;11.07;3.27;;;7.70;99.90;;;;;;5074090;28;20180;-61
2021/12/04 15:25:17;;;;;;;8.57;4.47;;;7.60;99.90;;;;;;5078131;28;20181;-61
2021/12/04 15:27:43;;;;;;;5.13;2.47;;;7.60;99.90;;;;;;5084678;28;20186;-61
2021/12/04 15:30:17;;;;;;;10.43;3.73;;;7.50;99.90;;;;;;5054617;28;20185;-62
2021/12/04 15:32:44;;;;;;;12.73;4.63;;;7.40;99.90;;;;;;5092124;28;20674;-61
2021/12/04 15:35:32;;;;;;;9.13;4.23;;;7.40;99.90;;;;;;5048118;28;20255;-61
2021/12/04 15:38:05;;;;;;;7.73;3.37;;;7.40;99.90;;;;;;5054728;28;20548;-62
2021/12/04 15:40:44;;;;;;;8.50;2.40;;;7.40;99.90;;;;;;5089588;28;20226;-62
2021/12/04 15:48:34;;;;;;;5.83;2.60;;;7.00;99.90;;;;;;5089807;28;20201;-61
2021/12/04 15:53:53;;;;;;;10.80;3.33;;;7.00;99.90;;;;;;5088521;28;20275;-62
2021/12/04 15:56:40;;;;;;;6.33;3.23;;;7.00;99.90;;;;;;5083882;28;20188;-61
2021/12/04 15:59:06;;;;;;;8.30;4.13;;;7.00;99.90;;;;;;5076400;28;20582;-61
2021/12/04 16:01:32;;;;;;;7.20;3.27;;;6.90;99.90;;;;;;5075547;28;20234;-61
2021/12/04 16:03:59;;;;;;;10.30;3.77;;;6.80;99.90;;;;;;5060989;28;20213;-61
2021/12/04 16:06:39;;;;;;;8.90;4.07;;;6.90;99.90;;;;;;5087302;28;20172;-61
2021/12/04 16:09:06;;;;;;;8.70;3.00;;;7.00;99.90;;;;;;5092903;28;20200;-61
2021/12/04 16:11:37;;;;;;;7.57;3.17;;;7.00;99.90;;;;;;5080663;28;20255;-61
2021/12/04 16:14:05;;;;;;;7.27;3.53;;;7.10;99.90;;;;;;5079019;28;20185;-65
2021/12/04 16:16:33;;;;;;;8.60;4.03;;;7.10;99.90;;;;;;5086904;28;20589;-63
2021/12/04 16:19:00;;;;;;;8.00;3.70;;;7.10;99.90;;;;;;5068973;28;20645;-63
2021/12/04 16:21:28;;;;;;;13.10;5.13;;;7.10;99.90;;;;;;5076479;28;20702;-64
2021/12/04 16:23:54;;;;;;;6.47;3.90;;;7.00;99.90;;;;;;5072758;28;20628;-63
2021/12/04 16:26:24;;;;;;;5.83;3.00;;;7.10;99.90;;;;;;5085506;28;20267;-63